Meteo Giornale » Osservazioni meteo Stati Uniti (USA) » Kirksville
ore: 08:55 - Osservazioni Meteo Kirksville
Lat. 40° 5' N Lon. 92° 32' W Alt. 294 metri s.l.m.
27 °C
Sereno
Temp. 24 Ore
22 °C
34 °C
Sud/Sud-Ovest
13 Km/h
Dew point 19 °C
Umidità 61 %
Visibilità 10 Km
Il sole sorge alle ore 06:38
Il sole tramonta alle ore 19:41
| Data e Ora | Cielo e Fenomeni | T °C | DP °C | Um. % | Pres. hPa | Vis. km | Vento km/h | |
|---|---|---|---|---|---|---|---|---|
| Oggi h: 08:55 | Sereno | 27 | 19 | 61 | 1017 | 10 | S/SO 13 | |
| Oggi h: 07:55 | Sereno | 24 | 18 | 69 | 1017 | 10 | SO 11.1 | |
| Oggi h: 06:55 | Sereno | 22 | 18 | 78 | 1016 | 10 | SO 9.3 | |
| Oggi h: 05:55 | Sereno | 22 | 18 | 78 | 1016 | 10 | SO 7.4 | |
| Oggi h: 04:55 | Sereno | 23 | 19 | 78 | 1015 | 10 | S/SO 7.4 | |
| Oggi h: 03:55 | Sereno | 23 | 20 | 83 | 1015 | 10 | N 5.5 | |
| Oggi h: 02:55 | Sereno | 23 | 20 | 83 | 1015 | 10 | N 5.5 | |
| Oggi h: 01:55 | Sereno | 23 | 20 | 83 | 1015 | 10 | N 5.5 | |
| Oggi h: 00:55 | Sereno | 24 | 21 | 83 | 1015 | 10 | SO 7.4 | |
| Ieri h: 23:55 | Sereno | 23 | 21 | 88 | 1015 | 10 | N 0 | |
| Ieri h: 22:55 | Sereno | 24 | 21 | 83 | 1015 | 10 | N 0 | |
| Ieri h: 21:55 | Sereno | 25 | 22 | 83 | 1015 | 10 | N 0 | |
| Ieri h: 20:55 | Sereno | 26 | 22 | 78 | 1014 | 10 | S 7.4 | |
| Ieri h: 19:55 | Sereno | 29 | 22 | 66 | 1014 | 10 | S/SO 7.4 | |
| Ieri h: 18:55 | Sereno | 32 | 21 | 52 | 1014 | 10 | N 5.5 | |
| Ieri h: 17:55 | Sereno | 33 | 21 | 49 | 1014 | 10 | S/SO 13 | |
| Ieri h: 16:55 | Sereno | 34 | 21 | 46 | 1014 | 10 | SO 20.3 | |
| Ieri h: 15:55 | Sereno | 34 | 20 | 43 | 1014 | 10 | O 14.8 | |
| Ieri h: 14:55 | Sereno | 34 | 19 | 41 | 1014 | 10 | O/SO 20.3 | |
| Ieri h: 13:55 | Sereno | 34 | 20 | 43 | 1014 | 10 | SO 22.2 | |
| Ieri h: 12:55 | Sereno | 33 | 19 | 43 | 1014 | 10 | SO 22.2 | |
| Ieri h: 11:55 | Sereno | 32 | 19 | 46 | 1015 | 10 | SO 20.3 | |
| Ieri h: 10:55 | Sereno | 31 | 18 | 45 | 1015 | 10 | O/SO 20.3 | |
| Ieri h: 09:55 | Poco Nuvoloso | 28 | 19 | 58 | 1015 | 10 | SO 16.7 | |



